Time;durP1;ratioP1;P1;durP2;ratioP2;P2;SDS_P1;SDS_P2;PMS_P1;PMS_P2;Temp;Humidity;BMP_temperature;BMP_pressure;BME280_temperature;BME280_humidity;BME280_pressure;Samples;Min_cycle;Max_cycle;Signal;HPM_P1;HPM_P2
2023/01/01 00:00:25;;;;;;;;;10.00;5.00;;;;;15.97;50.31;101248.72;1995399;28;2751299;-94
2023/01/01 00:01:39;;;;;;;;;5.67;5.00;;;;;15.98;50.51;101245.09;2034720;28;2742981;-94
2023/01/01 00:02:49;;;;;;;;;5.00;5.00;;;;;16.00;50.39;101247.69;2018997;28;2747150;-93
2023/01/01 00:04:00;;;;;;;;;6.00;5.00;;;;;16.01;50.58;101237.94;2035492;28;3460666;-93
2023/01/01 00:05:12;;;;;;;;;4.75;2.75;;;;;16.01;50.42;101244.09;2044026;28;2734637;-93
2023/01/01 00:06:23;;;;;;;;;7.00;5.00;;;;;16.01;50.33;101227.34;2019167;28;2746616;-93
2023/01/01 00:07:36;;;;;;;;;7.00;7.00;;;;;16.02;50.30;101229.06;2045806;28;2736736;-92
2023/01/01 00:10:26;;;;;;;;;7.50;7.00;;;;;16.02;50.44;101229.06;2021409;28;2741928;-93
2023/01/01 00:10:29;;;;;;;;;30.50;26.00;;;;;16.02;50.18;101221.97;1993430;27;2864866;-93
2023/01/01 00:11:42;;;;;;;;;11.50;10.33;;;;;16.03;50.35;101233.41;2025090;28;1824272;-94
2023/01/01 00:12:53;;;;;;;;;8.67;6.33;;;;;16.04;50.50;101224.53;1994230;28;2752500;-93
2023/01/01 00:14:03;;;;;;;;;5.33;4.33;;;;;16.04;50.43;101228.09;2014444;28;3460677;-93
2023/01/01 00:15:14;;;;;;;;;4.00;4.00;;;;;16.03;50.44;101236.06;2021862;28;2748223;-93
2023/01/01 00:16:25;;;;;;;;;4.33;3.67;;;;;16.04;50.77;101243.09;2028531;28;2752359;-93
2023/01/01 00:17:36;;;;;;;;;5.67;4.00;;;;;16.03;50.94;101236.94;2043198;28;2747132;-93
2023/01/01 00:18:49;;;;;;;;;5.50;4.17;;;;;16.04;50.77;101245.75;2022374;28;2744027;-94
2023/01/01 00:20:03;;;;;;;;;5.17;5.17;;;;;16.02;50.44;101240.53;2020379;28;2746110;-94
2023/01/01 00:21:16;;;;;;;;;5.17;4.17;;;;;16.03;51.09;101246.66;2021032;28;2754455;-94
2023/01/01 00:22:29;;;;;;;;;7.50;6.67;;;;;16.02;50.82;101235.22;2021971;28;2747152;-94
2023/01/01 00:23:43;;;;;;;;;5.50;5.50;;;;;16.03;50.49;101238.72;2022936;28;2742968;-91
2023/01/01 00:24:53;;;;;;;;;5.00;4.00;;;;;16.03;50.97;101236.94;1995578;28;2745076;-94
2023/01/01 00:26:31;;;;;;;;;5.33;4.00;;;;;16.03;50.65;101241.38;2033534;28;2745118;-94
2023/01/01 00:27:41;;;;;;;;;6.67;4.33;;;;;16.03;50.47;101244.88;2015965;28;2747137;-94
2023/01/01 00:28:52;;;;;;;;;6.00;4.67;;;;;16.03;50.76;101242.22;2030435;28;2744039;-96
2023/01/01 00:30:03;;;;;;;;;4.67;2.67;;;;;16.02;50.76;101245.84;2032726;28;2746106;-94
2023/01/01 00:31:18;;;;;;;;;4.20;2.80;;;;;16.03;50.71;101246.66;2044568;28;2738811;-93
2023/01/01 00:32:31;;;;;;;;;5.00;5.00;;;;;16.02;50.86;101251.13;2022321;28;2748181;-93
2023/01/01 00:33:49;;;;;;;;;3.17;2.00;;;;;16.02;50.97;101244.97;2021160;28;2745139;-93
2023/01/01 00:34:59;;;;;;;;;7.00;7.00;;;;;16.02;50.93;101250.28;1993602;28;3447104;-93
2023/01/01 00:36:15;;;;;;;;;4.00;4.00;;;;;16.02;51.01;101245.84;2034499;28;2748197;-94
2023/01/01 00:37:28;;;;;;;;;5.50;4.83;;;;;16.01;50.88;101240.59;2045455;28;2741280;-94
2023/01/01 00:38:40;;;;;;;;;13.00;10.00;;;;;16.02;51.28;101242.31;1988813;28;2779427;-94
2023/01/01 00:39:53;;;;;;;;;6.33;5.67;;;;;16.01;51.21;101245.88;2021228;28;2742973;-94
2023/01/01 00:41:04;;;;;;;;;8.00;8.00;;;;;16.00;51.39;101234.41;2009031;28;1817957;-93
2023/01/01 00:42:16;;;;;;;;;6.50;6.50;;;;;16.00;51.11;101241.53;2021193;28;2737816;-88
2023/01/01 00:43:29;;;;;;;;;3.33;3.33;;;;;16.01;51.49;101243.25;2044477;28;2725277;-93
2023/01/01 00:44:43;;;;;;;;;6.00;3.83;;;;;16.02;51.43;101247.63;2022193;28;2731539;-94
2023/01/01 00:45:54;;;;;;;;;19.00;16.67;;;;;16.01;51.40;101237.94;1992570;28;3555842;-94
2023/01/01 00:47:06;;;;;;;;;7.75;5.50;;;;;16.02;51.34;101235.22;2042961;28;2740925;-93
2023/01/01 00:48:20;;;;;;;;;4.83;4.67;;;;;16.02;51.66;101235.22;2045410;28;2746105;-94
2023/01/01 00:49:33;;;;;;;;;4.83;4.83;;;;;16.03;51.92;101236.06;2027825;28;2745057;-93
2023/01/01 00:50:44;;;;;;;;;9.33;8.33;;;;;16.02;51.32;101235.22;1993983;28;3475263;-93
2023/01/01 00:51:54;;;;;;;;;5.67;3.67;;;;;16.03;51.35;101225.47;2021306;28;3464847;-93
2023/01/01 00:53:06;;;;;;;;;6.50;6.00;;;;;16.02;51.63;101232.59;2043535;28;2734681;-95
2023/01/01 00:54:16;;;;;;;;;8.00;5.00;;;;;16.03;51.44;101222.81;2018799;28;2752374;-93
2023/01/01 00:55:28;;;;;;;;;7.33;5.00;;;;;16.03;51.53;101242.22;2043794;28;2745076;-93
2023/01/01 00:56:39;;;;;;;;;4.33;3.67;;;;;16.03;51.86;101234.28;2019234;28;2754420;-93
2023/01/01 00:57:50;;;;;;;;;6.67;4.00;;;;;16.04;51.58;101245.75;2034100;28;2735810;-94
2023/01/01 00:59:00;;;;;;;;;12.00;8.00;;;;;16.03;51.77;101236.94;2023430;28;2758051;-93
2023/01/01 01:00:13;;;;;;;;;8.50;6.00;;;;;16.03;51.96;101247.53;2042262;28;2744028;-93
2023/01/01 01:01:24;;;;;;;;;8.67;7.00;;;;;16.04;51.52;101241.34;2016522;28;2741967;-92
2023/01/01 01:02:35;;;;;;;;;5.00;4.00;;;;;16.04;51.94;101221.91;2032133;28;2749315;-93
2023/01/01 01:03:47;;;;;;;;;5.00;4.00;;;;;16.04;51.57;101220.13;2035700;28;2736758;-91
2023/01/01 01:04:57;;;;;;;;;11.00;9.67;;;;;16.05;51.85;101234.25;2016811;28;3492978;-94
2023/01/01 01:06:11;;;;;;;;;4.67;4.67;;;;;16.04;51.62;101229.84;2031692;28;2748218;-93
2023/01/01 01:07:22;;;;;;;;;9.00;4.33;;;;;16.04;51.56;101230.75;2010960;28;3461699;-93
2023/01/01 01:08:34;;;;;;;;;4.00;4.00;;;;;16.04;51.94;101235.16;2042408;28;2749244;-94
2023/01/01 01:09:45;;;;;;;;;6.00;2.67;;;;;16.05;51.80;101232.44;1995712;28;3470102;-94
2023/01/01 01:11:08;;;;;;;;;5.00;4.00;;;;;16.06;51.93;101233.31;2033763;28;2749238;-94
2023/01/01 01:12:18;;;;;;;;;5.33;4.00;;;;;16.06;52.15;101236.81;2018667;28;2754454;-93
2023/01/01 01:13:29;;;;;;;;;7.00;6.00;;;;;16.06;51.82;101228.88;2042102;28;1816928;-93
2023/01/01 01:14:40;;;;;;;;;10.00;9.50;;;;;16.06;52.04;101231.53;1992374;28;2777435;-93
2023/01/01 01:15:51;;;;;;;;;5.00;5.00;;;;;16.07;52.00;101237.69;2010087;28;2739836;-93
2023/01/01 01:17:02;;;;;;;;;13.00;8.67;;;;;16.07;52.10;101237.69;2048861;28;1842420;-93
2023/01/01 01:18:12;;;;;;;;;4.00;3.33;;;;;16.07;51.84;101245.66;1996612;28;2750332;-93
2023/01/01 01:19:24;;;;;;;;;10.67;6.67;;;;;16.07;51.82;101243.84;2032472;28;3472151;-94
2023/01/01 01:20:38;;;;;;;;;8.00;7.00;;;;;16.08;51.95;101234.09;2044284;28;2736762;-93
2023/01/01 01:21:50;;;;;;;;;5.33;4.67;;;;;16.07;52.06;101227.94;1994891;28;2743072;-94
2023/01/01 01:23:04;;;;;;;;;5.17;3.83;;;;;16.07;51.82;101230.59;2044830;28;2741947;-93
2023/01/01 01:24:17;;;;;;;;;6.17;5.50;;;;;16.07;52.30;101232.38;2021577;28;2731535;-95
2023/01/01 01:25:27;;;;;;;;;4.00;4.00;;;;;16.07;52.05;101229.75;1996042;28;2747180;-93
2023/01/01 01:26:39;;;;;;;;;8.33;7.00;;;;;16.08;51.98;101247.34;2043574;28;2736723;-93
2023/01/01 01:27:50;;;;;;;;;8.75;6.00;;;;;16.07;52.01;101243.00;2033411;28;1827906;-93
2023/01/01 01:29:03;;;;;;;;;6.67;6.67;;;;;16.07;51.86;101243.84;2043219;28;2732548;-93
2023/01/01 01:30:17;;;;;;;;;6.83;6.00;;;;;16.09;51.85;101249.06;2020373;28;2736735;-93
2023/01/01 01:31:32;;;;;;;;;6.00;6.00;;;;;16.09;52.40;101249.06;2020417;28;2741939;-93
2023/01/01 01:32:45;;;;;;;;;7.67;5.17;;;;;16.08;52.14;101261.47;2020753;28;2736763;-93
2023/01/01 01:33:56;;;;;;;;;10.00;5.67;;;;;16.09;52.39;101246.44;1985788;28;3477350;-93
2023/01/01 01:35:07;;;;;;;;;8.00;6.00;;;;;16.09;52.03;101259.69;2020006;28;2746203;-93
2023/01/01 01:36:18;;;;;;;;;5.00;3.00;;;;;16.09;52.46;101251.72;2017271;28;2743482;-92
2023/01/01 01:37:31;;;;;;;;;4.50;3.17;;;;;16.09;52.64;101251.72;2044218;28;2744016;-93
2023/01/01 01:38:43;;;;;;;;;16.67;15.33;;;;;16.10;52.64;101250.78;1992388;28;3559070;-94
2023/01/01 01:39:53;;;;;;;;;6.00;5.33;;;;;16.10;52.27;101249.94;2023792;28;3458590;-94
2023/01/01 01:41:05;;;;;;;;;5.67;5.67;;;;;16.10;52.44;101247.28;2022180;28;3459624;-93
2023/01/01 01:42:18;;;;;;;;;7.33;6.67;;;;;16.10;52.49;101250.78;2041782;28;2740917;-94
2023/01/01 01:43:32;;;;;;;;;6.67;4.33;;;;;16.10;52.36;101264.03;1995347;28;2746105;-94
2023/01/01 01:44:45;;;;;;;;;4.50;4.17;;;;;16.08;52.40;101261.47;2044755;28;2754447;-91
2023/01/01 01:46:14;;;;;;;;;8.50;6.17;;;;;16.07;52.42;101267.72;2020984;28;2736763;-92
2023/01/01 01:47:47;;;;;;;;;4.67;4.67;;;;;16.06;52.50;101267.78;1994403;28;3463161;-92
2023/01/01 01:49:16;;;;;;;;;4.67;4.33;;;;;16.06;53.02;101270.44;2044009;28;2746099;-91
2023/01/01 01:50:39;;;;;;;;;4.83;4.33;;;;;16.05;52.83;101276.69;2021813;28;2737768;-92
2023/01/01 01:51:50;;;;;;;;;8.33;5.33;;;;;16.05;53.22;101271.38;1995605;28;2752427;-92
2023/01/01 01:53:09;;;;;;;;;10.00;7.00;;;;;16.05;52.97;101266.06;2032933;28;2754535;-91
2023/01/01 01:54:23;;;;;;;;;9.50;7.00;;;;;16.05;52.91;101274.88;2017994;28;2748181;-91
2023/01/01 01:55:39;;;;;;;;;7.00;7.00;;;;;16.05;52.73;101290.78;2044257;28;2736729;-91
2023/01/01 01:57:00;;;;;;;;;8.67;3.00;;;;;16.05;52.91;101287.28;1995291;28;2752713;-91
2023/01/01 01:58:13;;;;;;;;;5.00;5.00;;;;;16.05;53.03;101279.34;2017843;28;3459070;-91
2023/01/01 01:59:31;;;;;;;;;9.50;8.67;;;;;16.04;52.61;101289.06;2048596;28;1829460;-91
2023/01/01 02:00:44;;;;;;;;;3.67;3.67;;;;;16.04;52.92;101283.78;2020419;28;2744031;-92
2023/01/01 02:01:55;;;;;;;;;8.00;8.00;;;;;16.04;53.00;101275.81;1992854;28;2740905;-92
2023/01/01 02:03:13;;;;;;;;;8.67;6.33;;;;;16.04;53.24;101280.22;2041839;28;2740911;-91
2023/01/01 02:04:24;;;;;;;;;9.33;5.67;;;;;16.04;52.79;101291.72;1994644;28;2749707;-91
2023/01/01 02:05:36;;;;;;;;;8.00;6.00;;;;;16.04;53.17;101285.53;2034101;28;2740922;-91
2023/01/01 02:06:47;;;;;;;;;13.00;9.00;;;;;16.04;53.20;101294.38;2015078;28;2771094;-91
2023/01/01 02:07:58;;;;;;;;;7.00;7.00;;;;;16.03;53.18;101289.97;2018461;28;2740995;-92
2023/01/01 02:09:12;;;;;;;;;7.83;5.00;;;;;16.04;53.16;101294.38;2044990;28;2732561;-92
2023/01/01 02:10:23;;;;;;;;;11.00;7.00;;;;;16.04;53.26;101280.22;1993256;28;3467026;-94
2023/01/01 02:11:33;;;;;;;;;7.00;5.33;;;;;16.04;53.26;101289.06;2017773;28;2737808;-93
2023/01/01 02:12:44;;;;;;;;;12.00;10.50;;;;;16.04;53.46;101298.78;2031402;28;2794041;-93
2023/01/01 02:13:57;;;;;;;;;10.00;8.75;;;;;16.04;53.25;101290.81;2035326;28;2744114;-94
2023/01/01 02:15:11;;;;;;;;;8.00;6.00;;;;;16.05;53.42;101295.25;2021059;28;2737773;-93
2023/01/01 02:16:26;;;;;;;;;9.00;5.00;;;;;16.04;53.28;101297.03;1994043;28;3455479;-94
2023/01/01 02:17:43;;;;;;;;;8.67;6.33;;;;;16.04;53.40;101307.63;2018278;28;3457568;-94
2023/01/01 02:19:22;;;;;;;;;10.50;7.50;;;;;16.04;53.28;101299.69;2032533;28;1829458;-94
2023/01/01 02:21:05;;;;;;;;;5.67;5.67;;;;;16.04;53.50;101299.69;2044607;28;2745060;-95
2023/01/01 02:22:35;;;;;;;;;5.50;5.50;;;;;16.02;53.22;101309.47;2020424;28;2750286;-94
2023/01/01 02:24:10;;;;;;;;;7.00;5.00;;;;;16.02;53.57;101311.25;1993359;28;2743046;-94
2023/01/01 02:25:20;;;;;;;;;6.33;6.33;;;;;16.01;53.82;101313.03;2017913;28;3458574;-94
2023/01/01 02:27:02;;;;;;;;;9.50;7.50;;;;;16.02;53.61;101319.22;2035498;28;2751303;-94
2023/01/01 02:28:47;;;;;;;;;5.67;5.00;;;;;16.01;53.63;101313.03;2018101;28;2743545;-95
2023/01/01 02:30:04;;;;;;;;;5.33;5.00;;;;;16.01;53.57;101306.88;2018259;28;2745037;-94
2023/01/01 02:31:26;;;;;;;;;4.83;4.83;;;;;16.00;53.70;101311.31;2043300;28;2742983;-94
2023/01/01 02:32:41;;;;;;;;;11.67;11.67;;;;;15.99;53.64;101309.59;1986922;28;3512762;-94
2023/01/01 02:34:01;;;;;;;;;4.83;4.83;;;;;15.97;53.68;101307.03;2044344;28;2736740;-94
2023/01/01 02:35:34;;;;;;;;;7.00;6.00;;;;;15.96;53.86;101313.25;1994180;28;2740887;-94
2023/01/01 02:36:52;;;;;;;;;5.00;3.67;;;;;15.96;54.07;101315.91;2035444;28;2754443;-94
2023/01/01 02:38:15;;;;;;;;;7.00;4.17;;;;;15.95;53.66;101318.63;2019883;28;2746094;-93
2023/01/01 02:39:31;;;;;;;;;6.00;5.00;;;;;15.95;53.90;101314.19;1995001;28;2750338;-94
2023/01/01 02:40:46;;;;;;;;;5.33;4.67;;;;;15.95;53.81;101331.91;2018615;28;2740957;-94
2023/01/01 02:42:02;;;;;;;;;7.50;4.83;;;;;15.94;54.01;101328.38;2044239;28;2742459;-94
2023/01/01 02:43:16;;;;;;;;;3.33;3.17;;;;;15.94;53.89;101322.22;2020465;28;2739845;-93
2023/01/01 02:44:31;;;;;;;;;7.67;5.00;;;;;15.93;54.14;101321.34;1986389;28;3459635;-94
2023/01/01 02:45:44;;;;;;;;;6.33;6.00;;;;;15.93;53.95;101317.81;2043514;28;2748193;-94
2023/01/01 02:46:55;;;;;;;;;11.25;10.25;;;;;15.94;54.05;101327.50;2000766;28;1835655;-94
2023/01/01 02:48:38;;;;;;;;;9.00;8.17;;;;;15.93;53.96;101317.81;2043039;28;2738831;-96
2023/01/01 02:50:10;;;;;;;;;14.33;14.33;;;;;15.92;54.05;101324.94;1985642;28;3530445;-94
2023/01/01 02:51:45;;;;;;;;;3.67;3.00;;;;;15.92;54.07;101334.69;2020967;28;2729450;-94
2023/01/01 02:53:05;;;;;;;;;7.50;7.00;;;;;15.90;54.11;101326.78;1983382;28;2740920;-94
2023/01/01 02:54:17;;;;;;;;;9.50;7.25;;;;;15.91;54.16;101338.25;2007000;28;1836295;-94
2023/01/01 02:55:46;;;;;;;;;6.67;6.33;;;;;15.90;54.16;101337.38;2017382;28;3456555;-94
2023/01/01 02:57:03;;;;;;;;;10.00;7.33;;;;;15.90;54.35;101341.84;2016177;28;3474206;-95
2023/01/01 03:00:26;;;;;;;;;11.67;6.33;;;;;15.89;54.25;101346.28;2014541;28;3478857;-94
2023/01/01 03:01:46;;;;;;;;;6.17;6.17;;;;;15.88;54.44;101333.94;2042766;28;2741951;-94
2023/01/01 03:03:13;;;;;;;;;5.33;5.33;;;;;15.90;54.38;101336.56;1987405;28;2748248;-94
2023/01/01 03:04:39;;;;;;;;;5.83;5.83;;;;;15.90;54.33;101339.19;2043519;28;2742422;-94
2023/01/01 03:07:57;;;;;;;;;6.00;4.33;;;;;15.90;54.42;101329.44;2044061;28;2746112;-93
2023/01/01 03:09:33;;;;;;;;;4.00;4.00;;;;;15.89;54.38;101333.03;1995532;28;2750293;-95
2023/01/01 03:11:03;;;;;;;;;5.67;5.50;;;;;15.88;54.38;101347.19;2043822;28;2745049;-92
2023/01/01 03:12:38;;;;;;;;;4.33;3.67;;;;;15.89;54.73;101334.81;1994163;28;2752349;-94
2023/01/01 03:14:20;;;;;;;;;6.83;6.33;;;;;15.87;54.58;101337.53;2044988;28;2735671;-94
2023/01/01 03:15:48;;;;;;;;;6.00;6.00;;;;;15.87;54.71;101340.19;2013591;28;2742962;-93
2023/01/01 03:17:13;;;;;;;;;8.00;6.33;;;;;15.87;54.63;101337.53;2000939;28;1820063;-94
2023/01/01 03:18:32;;;;;;;;;4.67;4.00;;;;;15.87;54.63;101326.94;1987672;28;3461696;-94
2023/01/01 03:19:48;;;;;;;;;7.50;6.17;;;;;15.88;54.53;101322.50;2041488;28;2741915;-94
2023/01/01 03:21:04;;;;;;;;;5.67;5.00;;;;;15.89;54.63;101325.06;2021280;28;2745059;-95
2023/01/01 03:22:20;;;;;;;;;6.50;5.33;;;;;15.89;54.75;101325.06;2019869;28;2734655;-94
2023/01/01 03:23:37;;;;;;;;;6.00;4.00;;;;;15.89;54.61;101335.69;1988315;28;2746106;-94
2023/01/01 03:24:58;;;;;;;;;7.00;5.67;;;;;15.90;54.71;101332.09;2037678;28;2733629;-94
2023/01/01 03:26:11;;;;;;;;;5.67;4.67;;;;;15.89;54.63;101333.03;1994644;28;2752430;-94
2023/01/01 03:27:34;;;;;;;;;7.50;5.17;;;;;15.89;54.74;101340.97;2043773;28;2746109;-93
2023/01/01 03:28:57;;;;;;;;;6.50;6.50;;;;;15.89;54.42;101345.41;2012709;28;2729460;-94
2023/01/01 03:30:13;;;;;;;;;6.67;5.00;;;;;15.88;54.87;101339.25;2013683;28;2741261;-93
2023/01/01 03:31:26;;;;;;;;;12.00;9.17;;;;;15.88;54.54;101344.56;2020417;28;2747183;-94
2023/01/01 03:32:59;;;;;;;;;11.00;9.50;;;;;15.88;55.07;101339.25;1993283;28;2781534;-94
2023/01/01 03:34:18;;;;;;;;;7.50;7.50;;;;;15.86;54.72;101341.97;2044614;28;2730530;-94
2023/01/01 03:35:54;;;;;;;;;8.00;6.83;;;;;15.87;54.85;101345.50;2044076;28;2735681;-93
2023/01/01 03:37:09;;;;;;;;;5.00;4.00;;;;;15.87;55.12;101361.41;1986632;28;2750264;-94
2023/01/01 03:38:37;;;;;;;;;4.83;4.50;;;;;15.87;54.95;101364.06;2044255;28;2745045;-94
2023/01/01 03:39:51;;;;;;;;;7.67;6.33;;;;;15.88;55.05;101364.91;1999304;28;2743101;-93
2023/01/01 03:41:08;;;;;;;;;10.67;5.00;;;;;15.86;55.12;101364.97;2016567;28;3488081;-94
2023/01/01 03:42:38;;;;;;;;;5.67;5.50;;;;;15.86;55.17;101363.19;2044225;28;2740874;-95
2023/01/01 03:44:10;;;;;;;;;6.00;3.50;;;;;15.89;55.10;101375.44;2044813;28;2734087;-93
2023/01/01 03:45:28;;;;;;;;;5.33;5.00;;;;;15.87;55.15;101369.34;1994739;28;2736724;-94
2023/01/01 03:46:40;;;;;;;;;5.00;4.67;;;;;15.86;55.24;101368.50;2017693;28;2739836;-94
2023/01/01 03:47:50;;;;;;;;;6.33;4.33;;;;;15.88;55.16;101359.63;2018669;28;2749355;-93
2023/01/01 03:49:05;;;;;;;;;3.80;3.40;;;;;15.86;55.04;101359.66;2043414;28;2741931;-94
2023/01/01 03:50:16;;;;;;;;;4.00;4.00;;;;;15.87;55.04;101364.06;2019585;28;2735723;-95
2023/01/01 03:51:57;;;;;;;;;9.67;4.00;;;;;15.88;55.32;101360.47;2031680;28;1835716;-94
2023/01/01 03:53:23;;;;;;;;;7.33;5.50;;;;;15.87;55.33;101356.09;2019465;28;2734672;-94
2023/01/01 03:54:58;;;;;;;;;11.00;7.00;;;;;15.87;55.27;101361.41;2012947;28;3481501;-94
2023/01/01 03:56:42;;;;;;;;;6.50;4.83;;;;;15.88;55.30;101362.28;2042003;28;2752348;-94
2023/01/01 03:58:23;;;;;;;;;6.67;5.00;;;;;15.86;55.47;101370.28;1996466;28;2745092;-94
2023/01/01 03:59:51;;;;;;;;;6.50;6.00;;;;;15.86;55.52;101364.97;2044593;28;2741926;-95
2023/01/01 04:01:13;;;;;;;;;12.33;8.00;;;;;15.87;55.28;101369.34;1995177;28;2756565;-94
2023/01/01 04:02:46;;;;;;;;;8.00;4.00;;;;;15.85;55.48;101373.88;2019972;28;2746089;-93
2023/01/01 04:04:00;;;;;;;;;6.00;4.67;;;;;15.84;55.85;101365.06;2019458;28;2732577;-94
2023/01/01 04:05:11;;;;;;;;;7.67;7.67;;;;;15.84;55.56;101369.50;2019124;28;2741935;-94
2023/01/01 04:06:22;;;;;;;;;5.33;5.33;;;;;15.84;55.40;101359.75;2012051;28;2740885;-94
2023/01/01 04:07:33;;;;;;;;;5.00;5.00;;;;;15.85;55.64;101368.56;2021676;28;2742982;-93
2023/01/01 04:08:46;;;;;;;;;10.00;8.33;;;;;15.85;55.65;101374.72;2018982;28;3468454;-94
2023/01/01 04:10:01;;;;;;;;;9.50;6.50;;;;;15.85;55.54;101376.53;2045251;28;2746122;-94
2023/01/01 04:12:55;;;;;;;;;6.83;5.83;;;;;15.83;55.60;101383.66;2014065;28;2740898;-94
2023/01/01 04:14:06;;;;;;;;;4.67;4.33;;;;;15.82;55.89;101389.91;1995696;28;2746171;-94
2023/01/01 04:15:21;;;;;;;;;9.75;8.25;;;;;15.82;55.76;101389.91;2043254;28;2746115;-95
2023/01/01 04:16:31;;;;;;;;;8.00;6.00;;;;;15.81;55.97;101386.38;2018365;28;3454400;-94
2023/01/01 04:17:42;;;;;;;;;5.33;5.33;;;;;15.81;55.83;101380.22;2044458;28;2742984;-94
2023/01/01 04:18:53;;;;;;;;;6.00;4.00;;;;;15.81;55.81;101378.44;1997308;28;2748178;-93
2023/01/01 04:20:06;;;;;;;;;7.00;5.67;;;;;15.81;56.15;101369.63;2036441;28;2745045;-93
2023/01/01 04:21:19;;;;;;;;;5.00;5.00;;;;;15.82;56.14;101380.16;2043764;28;2746091;-94
2023/01/01 04:22:30;;;;;;;;;8.00;7.00;;;;;15.82;55.77;101379.31;1988604;28;2737791;-93
2023/01/01 04:23:41;;;;;;;;;6.00;4.67;;;;;15.82;55.90;101374.88;2035990;28;2744011;-93
2023/01/01 04:24:51;;;;;;;;;13.50;12.50;;;;;15.83;55.91;101389.81;2015286;28;2784654;-94
2023/01/01 04:26:02;;;;;;;;;4.67;4.00;;;;;15.84;55.96;101385.38;2004115;28;2752313;-93
2023/01/01 04:27:13;;;;;;;;;7.67;4.33;;;;;15.83;55.90;101383.66;2031276;28;2752351;-94
2023/01/01 04:28:24;;;;;;;;;5.00;5.00;;;;;15.83;56.23;101389.81;2032912;28;2746139;-94
2023/01/01 04:29:37;;;;;;;;;5.67;5.67;;;;;15.84;55.83;101385.38;2043553;28;2739906;-94
2023/01/01 04:30:51;;;;;;;;;6.83;4.50;;;;;15.82;56.28;101389.91;2022485;28;2735706;-94
2023/01/01 04:32:01;;;;;;;;;4.00;4.00;;;;;15.83;56.21;101391.59;1995330;28;3465838;-93
2023/01/01 04:33:12;;;;;;;;;6.67;5.67;;;;;15.83;56.23;101408.38;2044289;28;2735679;-92
2023/01/01 04:34:23;;;;;;;;;5.00;4.67;;;;;15.83;56.17;101404.84;1994846;28;3459604;-94
2023/01/01 04:35:37;;;;;;;;;4.50;4.50;;;;;15.82;55.85;101401.38;2044642;28;2742993;-94
2023/01/01 04:36:50;;;;;;;;;4.83;3.83;;;;;15.82;56.18;101406.66;2022039;28;2733621;-93
2023/01/01 04:38:02;;;;;;;;;7.33;4.67;;;;;15.81;56.07;101402.28;1994571;28;3460654;-93
2023/01/01 04:39:13;;;;;;;;;5.00;4.33;;;;;15.81;56.43;101401.41;2018834;28;2747217;-93
2023/01/01 04:40:24;;;;;;;;;7.33;6.00;;;;;15.80;56.16;101400.59;2034073;28;2747230;-94
2023/01/01 04:41:34;;;;;;;;;6.00;5.00;;;;;15.81;56.16;101410.25;2032883;28;2745042;-93
2023/01/01 04:42:46;;;;;;;;;6.00;5.00;;;;;15.80;56.15;101395.28;2043966;28;2743045;-95
2023/01/01 04:43:57;;;;;;;;;5.67;5.33;;;;;15.80;56.28;101394.41;2019600;28;2748208;-94
2023/01/01 04:45:11;;;;;;;;;4.33;4.00;;;;;15.80;56.20;101408.53;2043113;28;2754448;-95
2023/01/01 04:46:22;;;;;;;;;10.67;6.00;;;;;15.80;56.17;101405.03;1995898;28;3481482;-93
2023/01/01 04:47:33;;;;;;;;;4.00;4.00;;;;;15.80;56.29;101408.53;2018956;28;2750268;-94
2023/01/01 04:48:44;;;;;;;;;6.00;5.67;;;;;15.80;56.32;101407.66;2033926;28;2747148;-94
2023/01/01 04:49:55;;;;;;;;;10.67;5.00;;;;;15.80;56.41;101402.38;2015555;28;3480528;-93
2023/01/01 04:51:09;;;;;;;;;9.00;4.00;;;;;15.80;56.38;101399.72;2036001;28;2745060;-94
2023/01/01 04:52:22;;;;;;;;;5.00;4.83;;;;;15.78;56.39;101401.59;2043696;28;2742969;-94
2023/01/01 04:53:35;;;;;;;;;5.33;5.00;;;;;15.79;56.30;101411.25;2022129;28;2746122;-94
2023/01/01 04:54:46;;;;;;;;;5.00;5.00;;;;;15.79;56.33;101413.88;1995468;28;2745561;-94
2023/01/01 04:56:07;;;;;;;;;6.00;5.00;;;;;15.79;56.48;101408.59;2043207;28;2739864;-93
2023/01/01 04:57:20;;;;;;;;;9.17;5.50;;;;;15.79;56.50;101408.59;2022371;28;2745061;-94
2023/01/01 04:58:32;;;;;;;;;7.00;4.33;;;;;15.78;56.53;101412.19;1994349;28;3465834;-94
2023/01/01 04:59:45;;;;;;;;;6.00;5.00;;;;;15.77;56.43;101406.00;2036597;28;2746105;-94
2023/01/01 05:00:59;;;;;;;;;4.83;4.83;;;;;15.78;56.62;101404.22;2022425;28;2745125;-93
2023/01/01 05:02:09;;;;;;;;;7.67;5.67;;;;;15.77;56.57;101407.78;2000943;28;2737796;-93
2023/01/01 05:03:20;;;;;;;;;6.33;5.00;;;;;15.76;56.57;101404.28;2036727;28;2739844;-93
2023/01/01 05:04:34;;;;;;;;;4.50;3.50;;;;;15.77;56.69;101400.72;2044481;28;2750325;-93
2023/01/01 05:05:44;;;;;;;;;4.00;4.00;;;;;15.77;56.78;101405.16;1994042;28;3461683;-94
2023/01/01 05:06:56;;;;;;;;;4.00;4.00;;;;;15.77;56.45;101407.78;2042783;28;2731517;-93
2023/01/01 05:08:09;;;;;;;;;8.33;5.83;;;;;15.76;56.62;101414.88;2043807;28;2739856;-94
2023/01/01 05:09:22;;;;;;;;;6.83;5.50;;;;;15.76;56.68;101406.94;2020686;28;2735733;-95
2023/01/01 05:10:33;;;;;;;;;7.00;3.33;;;;;15.74;56.51;101404.34;1995487;28;2749222;-94
2023/01/01 05:11:44;;;;;;;;;3.33;3.33;;;;;15.74;56.60;101407.00;2027842;28;2752348;-93
2023/01/01 05:12:55;;;;;;;;;8.67;5.00;;;;;15.74;56.98;101411.44;2029659;28;2745607;-94
2023/01/01 05:14:06;;;;;;;;;6.00;4.25;;;;;15.73;57.09;101418.53;2043492;28;2744016;-94
2023/01/01 05:15:17;;;;;;;;;6.00;5.00;;;;;15.72;56.69;101414.16;2019252;28;2754443;-93
2023/01/01 05:16:31;;;;;;;;;4.00;4.00;;;;;15.72;57.17;101416.81;2035676;28;2750361;-94
2023/01/01 05:17:41;;;;;;;;;6.00;3.33;;;;;15.72;57.26;101419.47;2018800;28;2744005;-94
2023/01/01 05:18:53;;;;;;;;;6.00;4.67;;;;;15.72;56.94;101434.50;2043016;28;2748173;-93
2023/01/01 05:20:04;;;;;;;;;8.00;4.33;;;;;15.72;56.95;101438.03;1996288;28;2747132;-94
2023/01/01 05:21:20;;;;;;;;;3.33;3.33;;;;;15.73;56.76;101431.78;2022746;28;2752348;-94
2023/01/01 05:22:31;;;;;;;;;9.00;6.00;;;;;15.73;56.94;101438.84;2017711;28;3468985;-94
2023/01/01 05:23:42;;;;;;;;;7.67;5.00;;;;;15.73;57.33;101438.84;2042234;28;2747135;-94
2023/01/01 05:24:53;;;;;;;;;12.00;10.00;;;;;15.73;56.76;101437.06;1993312;28;3501276;-93
2023/01/01 05:26:14;;;;;;;;;7.20;5.40;;;;;15.73;57.09;101445.03;2044239;28;2748197;-94
2023/01/01 05:27:25;;;;;;;;;9.50;8.50;;;;;15.72;57.12;101440.69;1995646;28;2742969;-93
2023/01/01 05:28:36;;;;;;;;;7.00;7.00;;;;;15.73;57.16;101437.06;2035660;28;3459627;-94
2023/01/01 05:29:48;;;;;;;;;16.33;10.67;;;;;15.73;57.02;101441.50;2016275;28;2806638;-94
2023/01/01 05:30:58;;;;;;;;;7.00;5.67;;;;;15.72;57.09;101445.97;2017775;28;2746182;-93
2023/01/01 05:32:09;;;;;;;;;5.67;5.00;;;;;15.71;57.14;101454.84;2028315;28;3459608;-94
2023/01/01 05:33:20;;;;;;;;;4.00;4.00;;;;;15.71;57.18;101457.50;2032294;28;2752379;-93
2023/01/01 05:34:31;;;;;;;;;10.33;10.00;;;;;15.71;57.25;101456.63;2030695;28;3499185;-93
2023/01/01 05:35:42;;;;;;;;;9.00;6.00;;;;;15.72;57.37;101453.06;2023211;28;2750340;-94
2023/01/01 05:36:53;;;;;;;;;17.67;12.33;;;;;15.71;57.30;101452.19;2025690;28;3533555;-94
2023/01/01 05:38:04;;;;;;;;;10.00;8.00;;;;;15.71;57.11;101449.53;2030279;28;2741248;-94
2023/01/01 05:39:15;;;;;;;;;29.40;21.00;;;;;15.71;57.05;101457.50;2031866;28;3593965;-94
2023/01/01 05:40:27;;;;;;;;;10.00;9.00;;;;;15.72;57.28;101467.19;2032735;28;2772167;-94
2023/01/01 05:41:38;;;;;;;;;7.33;5.67;;;;;15.72;57.20;101472.47;2009677;28;2748164;-94
2023/01/01 05:42:49;;;;;;;;;8.67;5.33;;;;;15.71;57.25;101467.22;2031604;28;1820078;-94
2023/01/01 05:44:03;;;;;;;;;15.67;13.00;;;;;15.71;57.43;101470.75;2005925;28;3538739;-93
2023/01/01 05:45:16;;;;;;;;;3.67;2.50;;;;;15.71;56.85;101468.09;2038929;28;2724173;-93
2023/01/01 05:46:27;;;;;;;;;23.00;18.33;;;;;15.72;57.42;101471.59;1994848;28;2848153;-93
2023/01/01 05:47:38;;;;;;;;;10.00;9.00;;;;;15.70;57.20;101471.69;2016537;28;2767973;-93
2023/01/01 05:48:50;;;;;;;;;13.00;11.00;;;;;15.71;57.44;101475.16;2044769;28;1832068;-94